createdAt,value
2019-02-09T00:00:27.142Z,10.40
2019-02-09T00:01:27.155Z,10.50
2019-02-09T00:02:27.140Z,11.00
2019-02-09T00:03:27.107Z,10.80
2019-02-09T00:04:27.094Z,11.70
2019-02-09T00:05:27.094Z,11.60
2019-02-09T00:06:27.074Z,12.20
2019-02-09T00:07:27.064Z,12.40
2019-02-09T00:08:27.083Z,11.80
2019-02-09T00:09:27.051Z,12.80
2019-02-09T00:10:27.032Z,12.60
2019-02-09T00:11:27.029Z,13.30
2019-02-09T00:12:27.019Z,12.90
2019-02-09T00:13:27.003Z,12.70
2019-02-09T00:14:27.009Z,13.80
2019-02-09T00:15:26.984Z,13.90
2019-02-09T00:16:26.984Z,14.50
2019-02-09T00:17:26.961Z,14.10
2019-02-09T00:18:26.955Z,14.70
2019-02-09T00:19:26.942Z,14.40
2019-02-09T00:20:26.955Z,14.70
2019-02-09T00:21:26.924Z,14.20
2019-02-09T00:22:26.913Z,14.90
2019-02-09T00:23:26.901Z,14.90
2019-02-09T00:24:26.894Z,14.90
2019-02-09T00:25:26.886Z,14.50
2019-02-09T00:26:26.977Z,14.50
2019-02-09T00:27:26.862Z,14.70
2019-02-09T00:28:26.850Z,15.20
2019-02-09T00:29:26.840Z,14.60
2019-02-09T00:30:26.840Z,15.10
2019-02-09T00:31:26.817Z,15.20
2019-02-09T00:32:26.827Z,15.30
2019-02-09T00:33:26.799Z,14.90
2019-02-09T00:34:28.053Z,14.00
2019-02-09T00:35:26.778Z,15.60
2019-02-09T00:36:26.766Z,13.90
2019-02-09T00:37:26.756Z,14.20
2019-02-09T00:38:26.825Z,13.50
2019-02-09T00:39:26.737Z,12.50
2019-02-09T00:40:26.727Z,13.20
2019-02-09T00:41:26.712Z,11.90
2019-02-09T00:42:26.705Z,12.20
2019-02-09T00:43:26.695Z,11.60
2019-02-09T00:44:26.702Z,10.80
2019-02-09T00:45:26.673Z,11.00
2019-02-09T00:46:26.670Z,10.40
2019-02-09T00:47:26.657Z,9.70
2019-02-09T00:48:26.640Z,9.40
2019-02-09T00:49:26.631Z,10.30
2019-02-09T00:50:26.635Z,10.60
2019-02-09T00:51:26.615Z,9.80
2019-02-09T00:52:26.602Z,9.10
2019-02-09T00:53:26.590Z,9.50
2019-02-09T00:54:26.590Z,9.30
2019-02-09T00:55:26.570Z,9.70
2019-02-09T00:56:26.608Z,9.20
2019-02-09T00:57:26.548Z,9.50
2019-02-09T00:58:26.541Z,9.40
2019-02-09T00:59:26.533Z,9.30
2019-02-09T01:00:26.523Z,10.30
2019-02-09T01:01:26.510Z,10.20
2019-02-09T01:02:26.513Z,10.10
2019-02-09T01:03:26.490Z,10.30
2019-02-09T01:04:26.485Z,10.70
2019-02-09T01:05:26.467Z,10.30
2019-02-09T01:06:26.460Z,10.60
2019-02-09T01:07:26.447Z,10.50
2019-02-09T01:08:26.453Z,10.60
2019-02-09T01:09:26.429Z,11.10
2019-02-09T01:10:26.415Z,11.00
2019-02-09T01:11:26.415Z,10.70
2019-02-09T01:12:26.402Z,10.90
2019-02-09T01:13:26.383Z,11.20
2019-02-09T01:14:26.393Z,10.70
2019-02-09T01:15:26.364Z,10.30
2019-02-09T01:16:26.367Z,10.00
2019-02-09T01:17:26.344Z,10.30
2019-02-09T01:18:26.338Z,10.50
2019-02-09T01:19:26.322Z,10.70
2019-02-09T01:20:26.331Z,10.90
2019-02-09T01:21:26.302Z,11.60
2019-02-09T01:22:26.297Z,10.90
2019-02-09T01:23:26.287Z,10.70
2019-02-09T01:24:26.272Z,10.50
2019-02-09T01:25:26.263Z,10.60
2019-02-09T01:26:26.271Z,10.30
2019-02-09T01:27:26.240Z,10.80
2019-02-09T01:28:26.236Z,10.60
2019-02-09T01:29:26.220Z,11.30
2019-02-09T01:30:26.212Z,11.00
2019-02-09T01:31:26.201Z,10.30
2019-02-09T01:32:26.211Z,10.80
2019-02-09T01:33:26.178Z,10.60
2019-02-09T01:34:26.179Z,10.80
2019-02-09T01:35:26.162Z,10.50
2019-02-09T01:36:26.147Z,10.70
2019-02-09T01:37:26.147Z,10.70
2019-02-09T01:38:26.143Z,11.20
2019-02-09T01:39:26.115Z,10.60
2019-02-09T01:40:26.108Z,10.10
2019-02-09T01:41:26.095Z,10.20
2019-02-09T01:42:26.088Z,9.80
2019-02-09T01:43:26.074Z,10.60
2019-02-09T01:44:26.095Z,10.80
2019-02-09T01:45:26.054Z,11.40
2019-02-09T01:46:26.052Z,11.40
2019-02-09T01:47:26.036Z,11.10
2019-02-09T01:48:26.026Z,11.20
2019-02-09T01:49:26.019Z,11.10
2019-02-09T01:50:26.025Z,11.30
2019-02-09T01:51:25.987Z,10.90
2019-02-09T01:52:25.984Z,12.80
2019-02-09T01:53:25.970Z,12.70
2019-02-09T01:54:25.959Z,12.70
2019-02-09T01:55:25.945Z,12.40
2019-02-09T01:56:25.953Z,11.80
2019-02-09T01:57:25.926Z,10.70
2019-02-09T01:58:25.934Z,12.30
2019-02-09T01:59:25.906Z,10.70
2019-02-09T02:00:25.897Z,11.20
2019-02-09T02:01:25.900Z,10.70
2019-02-09T02:02:25.910Z,11.70
2019-02-09T02:03:25.862Z,10.80
2019-02-09T02:04:25.860Z,11.00
2019-02-09T02:05:25.847Z,11.00
2019-02-09T02:06:25.839Z,11.50
2019-02-09T02:07:25.824Z,11.70
2019-02-09T02:08:25.868Z,11.10
2019-02-09T02:09:25.811Z,11.80
2019-02-09T02:10:25.805Z,11.90
2019-02-09T02:11:25.783Z,11.80
2019-02-09T02:12:25.779Z,12.40
2019-02-09T02:13:25.763Z,12.80
2019-02-09T02:14:25.808Z,13.50
2019-02-09T02:15:25.753Z,13.40
2019-02-09T02:16:25.760Z,13.90
2019-02-09T02:17:25.725Z,14.70
2019-02-09T02:18:25.712Z,14.70
2019-02-09T02:19:25.702Z,14.90
2019-02-09T02:20:25.734Z,15.20
2019-02-09T02:21:25.686Z,14.60
2019-02-09T02:22:25.676Z,15.80
2019-02-09T02:23:32.702Z,16.30
2019-02-09T02:24:25.650Z,16.90
2019-02-09T02:25:25.643Z,15.50
2019-02-09T02:26:25.683Z,17.90
2019-02-09T02:27:25.617Z,18.40
2019-02-09T02:28:25.609Z,17.60
2019-02-09T02:29:25.601Z,17.60
2019-02-09T02:30:25.594Z,18.30
2019-02-09T02:31:25.573Z,18.70
2019-02-09T02:32:25.604Z,19.30
2019-02-09T02:33:25.558Z,19.10
2019-02-09T02:34:25.557Z,17.60
2019-02-09T02:35:25.538Z,18.90
2019-02-09T02:36:25.530Z,19.20
2019-02-09T02:37:25.532Z,18.90
2019-02-09T02:38:25.550Z,18.90
2019-02-09T02:39:25.495Z,19.60
2019-02-09T02:40:25.490Z,19.40
2019-02-09T02:41:25.505Z,20.50
2019-02-09T02:42:25.470Z,19.10
2019-02-09T02:43:25.451Z,19.10
2019-02-09T02:44:25.576Z,19.50
2019-02-09T02:45:25.431Z,19.90
2019-02-09T02:46:25.422Z,19.50
2019-02-09T02:47:25.410Z,18.60
2019-02-09T02:48:25.407Z,18.40
2019-02-09T02:49:25.393Z,18.40
2019-02-09T02:50:25.429Z,19.10
2019-02-09T02:51:25.372Z,19.30
2019-02-09T02:52:25.358Z,20.30
2019-02-09T02:53:25.349Z,19.10
2019-02-09T02:54:25.336Z,18.70
2019-02-09T02:55:25.327Z,18.80
2019-02-09T02:56:25.374Z,19.70
2019-02-09T02:57:25.310Z,19.50
2019-02-09T02:58:25.297Z,19.10
2019-02-09T02:59:25.285Z,19.50
2019-02-09T03:00:31.805Z,20.20
2019-02-09T03:01:26.316Z,18.90
2019-02-09T03:02:25.261Z,19.30
2019-02-09T03:03:25.239Z,18.50
2019-02-09T03:04:25.230Z,19.00
2019-02-09T03:05:25.226Z,18.20
2019-02-09T03:06:25.227Z,19.60
2019-02-09T03:07:25.216Z,18.30
2019-02-09T03:08:25.191Z,18.10
2019-02-09T03:09:25.175Z,18.50
2019-02-09T03:10:25.169Z,18.90
2019-02-09T03:11:25.155Z,18.90
2019-02-09T03:12:25.142Z,17.90
2019-02-09T03:13:25.167Z,19.40
2019-02-09T03:14:25.129Z,18.60
2019-02-09T03:15:25.119Z,18.80
2019-02-09T03:16:25.104Z,18.60
2019-02-09T03:17:25.094Z,20.00
2019-02-09T03:18:25.094Z,18.40
2019-02-09T03:19:25.090Z,18.60
2019-02-09T03:20:25.060Z,18.70
2019-02-09T03:21:25.057Z,17.70
2019-02-09T03:22:25.039Z,17.70
2019-02-09T03:23:25.032Z,19.10
2019-02-09T03:24:25.019Z,18.90
2019-02-09T03:25:25.781Z,18.60
2019-02-09T03:26:24.996Z,18.50
2019-02-09T03:27:24.983Z,18.90
2019-02-09T03:28:24.980Z,19.10
2019-02-09T03:29:24.964Z,18.90
2019-02-09T03:30:24.966Z,18.90
2019-02-09T03:31:24.987Z,18.20
2019-02-09T03:32:24.935Z,18.50
2019-02-09T03:33:24.934Z,19.40
2019-02-09T03:34:24.911Z,20.30
2019-02-09T03:35:24.923Z,19.30
2019-02-09T03:36:24.891Z,19.10
2019-02-09T03:37:24.898Z,19.30
2019-02-09T03:38:24.878Z,19.10
2019-02-09T03:39:24.859Z,19.30
2019-02-09T03:40:24.851Z,20.00
2019-02-09T03:41:24.848Z,19.20
2019-02-09T03:42:24.826Z,20.00
2019-02-09T03:43:24.836Z,19.90
2019-02-09T03:44:24.816Z,20.30
2019-02-09T03:45:24.795Z,20.40
2019-02-09T03:46:24.789Z,20.70
2019-02-09T03:47:24.773Z,20.40
2019-02-09T03:48:24.763Z,20.30
2019-02-09T03:49:24.801Z,21.30
2019-02-09T03:50:24.748Z,21.70
2019-02-09T03:51:24.734Z,20.40
2019-02-09T03:52:24.724Z,20.40
2019-02-09T03:53:24.708Z,20.30
2019-02-09T03:54:24.706Z,21.40
2019-02-09T03:55:24.739Z,20.30
2019-02-09T03:56:24.680Z,20.10
2019-02-09T03:57:24.675Z,20.60
2019-02-09T03:58:24.663Z,20.80
2019-02-09T03:59:24.652Z,20.50
2019-02-09T04:00:24.641Z,19.50
2019-02-09T04:01:24.667Z,18.70
2019-02-09T04:02:24.615Z,19.50
2019-02-09T04:03:24.604Z,20.50
2019-02-09T04:04:24.593Z,20.90
2019-02-09T04:05:24.586Z,19.90
2019-02-09T04:06:24.572Z,20.50
2019-02-09T04:07:24.578Z,19.80
2019-02-09T04:08:24.553Z,20.30
2019-02-09T04:09:24.547Z,20.50
2019-02-09T04:10:24.527Z,21.80
2019-02-09T04:11:24.527Z,19.10
2019-02-09T04:12:24.511Z,18.20
2019-02-09T04:13:24.519Z,19.90
2019-02-09T04:14:24.486Z,19.60
2019-02-09T04:15:24.473Z,19.60
2019-02-09T04:16:24.467Z,20.20
2019-02-09T04:17:24.462Z,20.30
2019-02-09T04:18:24.492Z,20.70
2019-02-09T04:19:24.447Z,20.10
2019-02-09T04:20:24.424Z,21.10
2019-02-09T04:21:24.425Z,19.40
2019-02-09T04:22:24.402Z,20.80
2019-02-09T04:23:24.402Z,20.50
2019-02-09T04:24:24.384Z,21.30
2019-02-09T04:25:24.448Z,20.10
2019-02-09T04:26:24.371Z,21.10
2019-02-09T04:27:24.350Z,20.50
2019-02-09T04:28:24.347Z,20.60
2019-02-09T04:29:24.336Z,20.90
2019-02-09T04:30:24.320Z,20.60
2019-02-09T04:31:24.348Z,20.00
2019-02-09T04:32:24.296Z,20.70
2019-02-09T04:33:24.286Z,20.20
2019-02-09T04:34:24.278Z,19.20
2019-02-09T04:35:24.277Z,19.20
2019-02-09T04:36:24.259Z,20.40
2019-02-09T04:37:24.262Z,19.20
2019-02-09T04:38:24.234Z,19.60
2019-02-09T04:39:24.232Z,19.30
2019-02-09T04:40:24.219Z,17.20
2019-02-09T04:41:24.216Z,11.50
2019-02-09T04:42:24.192Z,12.90
2019-02-09T04:43:24.215Z,10.90
2019-02-09T04:44:24.184Z,10.10
2019-02-09T04:45:24.170Z,7.90
2019-02-09T04:46:24.154Z,5.80
2019-02-09T04:47:24.154Z,5.20
2019-02-09T04:48:24.133Z,6.30
2019-02-09T04:49:24.177Z,7.10
2019-02-09T04:50:24.123Z,3.90
2019-02-09T04:51:24.097Z,2.50
2019-02-09T04:52:24.082Z,3.30
2019-02-09T04:53:24.082Z,1.50
2019-02-09T04:54:24.076Z,1.40
2019-02-09T04:55:24.109Z,1.20
2019-02-09T04:56:24.054Z,1.00
2019-02-09T04:57:24.038Z,1.00
2019-02-09T04:58:24.028Z,1.00
2019-02-09T04:59:24.017Z,1.20
2019-02-09T05:00:24.008Z,1.10
2019-02-09T05:01:24.016Z,1.20
2019-02-09T05:02:23.983Z,1.10
2019-02-09T05:03:23.971Z,1.00
2019-02-09T05:04:23.958Z,1.20
2019-02-09T05:05:23.952Z,1.30
2019-02-09T05:06:23.948Z,1.20
2019-02-09T05:07:23.945Z,1.10
2019-02-09T05:08:23.917Z,1.10
2019-02-09T05:09:23.907Z,1.10
2019-02-09T05:10:23.907Z,1.10
2019-02-09T05:11:23.884Z,0.90
2019-02-09T05:12:23.891Z,1.00
2019-02-09T05:13:23.888Z,1.00
2019-02-09T05:14:23.856Z,1.00
2019-02-09T05:15:23.843Z,0.90
2019-02-09T05:16:23.846Z,1.20
2019-02-09T05:17:23.824Z,1.10
2019-02-09T05:18:23.823Z,1.10
2019-02-09T05:19:23.824Z,0.80
2019-02-09T05:20:24.817Z,1.00
2019-02-09T05:21:23.784Z,1.20
2019-02-09T05:22:23.775Z,1.00
2019-02-09T05:23:23.762Z,0.90
2019-02-09T05:24:23.758Z,1.00
2019-02-09T05:25:23.801Z,1.40
2019-02-09T05:26:23.729Z,1.20
2019-02-09T05:27:23.722Z,1.00
2019-02-09T05:28:23.711Z,0.90
2019-02-09T05:29:23.749Z,0.80
2019-02-09T05:30:23.698Z,1.40
2019-02-09T05:31:23.812Z,1.00
2019-02-09T05:32:23.665Z,1.10
2019-02-09T05:33:23.661Z,1.30
2019-02-09T05:34:23.646Z,1.10
2019-02-09T05:35:23.636Z,1.20
2019-02-09T05:36:23.629Z,1.00
2019-02-09T05:37:23.725Z,1.00
2019-02-09T05:38:23.647Z,1.00
2019-02-09T05:39:23.607Z,1.00
2019-02-09T05:40:23.592Z,0.90
2019-02-09T05:41:23.580Z,1.00
2019-02-09T05:42:23.562Z,1.00
2019-02-09T05:43:23.568Z,1.10
2019-02-09T05:44:23.539Z,1.20
2019-02-09T05:45:23.531Z,1.20
2019-02-09T05:46:23.525Z,1.20
2019-02-09T05:47:23.516Z,1.10
2019-02-09T05:48:23.498Z,1.10
2019-02-09T05:49:23.502Z,1.20
2019-02-09T05:50:23.495Z,1.20
2019-02-09T05:51:23.466Z,1.10
2019-02-09T05:52:23.455Z,1.20
2019-02-09T05:53:23.445Z,1.30
2019-02-09T05:54:23.444Z,1.10
2019-02-09T05:55:23.449Z,1.00
2019-02-09T05:56:23.415Z,1.00
2019-02-09T05:57:23.401Z,1.30
2019-02-09T05:58:23.393Z,1.10
2019-02-09T05:59:23.381Z,1.10
2019-02-09T06:00:23.372Z,1.30
2019-02-09T06:01:31.642Z,1.00
2019-02-09T06:02:24.345Z,1.00
2019-02-09T06:03:23.335Z,1.40
2019-02-09T06:04:23.322Z,1.20
2019-02-09T06:05:23.313Z,1.30
2019-02-09T06:06:23.305Z,1.20
2019-02-09T06:07:23.351Z,1.00
2019-02-09T06:08:23.294Z,1.00
2019-02-09T06:09:23.269Z,1.20
2019-02-09T06:10:23.262Z,1.00
2019-02-09T06:11:23.250Z,1.20
2019-02-09T06:12:23.250Z,1.30
2019-02-09T06:13:23.243Z,1.10
2019-02-09T06:14:23.218Z,1.00
2019-02-09T06:15:23.214Z,1.40
2019-02-09T06:16:23.189Z,1.30
2019-02-09T06:17:23.183Z,1.10
2019-02-09T06:18:23.182Z,1.20
2019-02-09T06:19:23.176Z,1.20
2019-02-09T06:20:23.150Z,1.40
2019-02-09T06:21:23.138Z,1.20
2019-02-09T06:22:23.132Z,1.60
2019-02-09T06:23:23.120Z,1.20
2019-02-09T06:24:23.106Z,1.50
2019-02-09T06:25:23.136Z,1.50
2019-02-09T06:26:23.094Z,1.40
2019-02-09T06:27:23.074Z,1.20
2019-02-09T06:28:23.063Z,1.40
2019-02-09T06:29:23.074Z,1.50
2019-02-09T06:30:23.042Z,1.40
2019-02-09T06:31:23.047Z,1.50
2019-02-09T06:32:23.020Z,1.40
2019-02-09T06:33:23.016Z,1.40
2019-02-09T06:34:23.004Z,1.60
2019-02-09T06:35:23.002Z,1.40
2019-02-09T06:36:22.980Z,1.30
2019-02-09T06:37:22.997Z,1.20
2019-02-09T06:38:22.962Z,1.50
2019-02-09T06:39:22.940Z,1.20
2019-02-09T06:40:22.934Z,1.20
2019-02-09T06:41:22.925Z,1.50
2019-02-09T06:42:22.912Z,1.30
2019-02-09T06:43:22.943Z,1.60
2019-02-09T06:44:22.889Z,1.40
2019-02-09T06:45:22.882Z,1.30
2019-02-09T06:46:22.972Z,1.10
2019-02-09T06:47:22.856Z,1.40
2019-02-09T06:48:22.840Z,1.30
2019-02-09T06:49:22.852Z,1.40
2019-02-09T06:50:22.820Z,1.20
2019-02-09T06:51:22.820Z,1.30
2019-02-09T06:52:22.801Z,1.60
2019-02-09T06:53:22.791Z,1.40
2019-02-09T06:54:22.786Z,1.40
2019-02-09T06:55:22.785Z,1.30
2019-02-09T06:56:22.760Z,1.40
2019-02-09T06:57:22.753Z,1.40
2019-02-09T06:58:22.750Z,1.40
2019-02-09T06:59:22.728Z,1.40
2019-02-09T07:00:22.722Z,1.50
2019-02-09T07:01:22.718Z,1.50
2019-02-09T07:02:22.702Z,1.60
2019-02-09T07:03:22.688Z,1.40
2019-02-09T07:04:22.667Z,1.70
2019-02-09T07:05:22.675Z,1.80
2019-02-09T07:06:22.652Z,1.60
2019-02-09T07:07:22.666Z,1.60
2019-02-09T07:08:22.630Z,1.60
2019-02-09T07:09:22.618Z,1.30
2019-02-09T07:10:22.607Z,1.60
2019-02-09T07:11:22.604Z,1.70
2019-02-09T07:12:22.597Z,1.50
2019-02-09T07:13:22.599Z,1.40
2019-02-09T07:14:22.569Z,1.60
2019-02-09T07:15:22.562Z,1.20
2019-02-09T07:16:22.543Z,1.40
2019-02-09T07:17:22.575Z,1.60
2019-02-09T07:18:22.520Z,1.40
2019-02-09T07:19:22.568Z,1.60
2019-02-09T07:20:22.588Z,1.50
2019-02-09T07:21:22.489Z,1.80
2019-02-09T07:22:22.479Z,1.30
2019-02-09T07:23:22.479Z,1.20
2019-02-09T07:24:22.460Z,1.40
2019-02-09T07:25:22.492Z,1.40
2019-02-09T07:26:22.436Z,1.30
2019-02-09T07:27:22.436Z,1.50
2019-02-09T07:28:22.411Z,1.40
2019-02-09T07:29:22.405Z,1.50
2019-02-09T07:30:22.397Z,1.30
2019-02-09T07:31:22.401Z,1.50
2019-02-09T07:32:22.376Z,1.30
2019-02-09T07:33:22.363Z,1.30
2019-02-09T07:34:22.360Z,1.40
2019-02-09T07:35:22.344Z,1.20
2019-02-09T07:36:22.331Z,1.30
2019-02-09T07:37:22.338Z,1.10
2019-02-09T07:38:22.333Z,1.40
2019-02-09T07:39:22.302Z,1.20
2019-02-09T07:40:22.296Z,1.20
2019-02-09T07:41:22.303Z,1.40
2019-02-09T07:42:22.260Z,1.40
2019-02-09T07:43:22.274Z,1.10
2019-02-09T07:44:22.247Z,1.00
2019-02-09T07:45:22.234Z,1.10
2019-02-09T07:46:22.224Z,1.20
2019-02-09T07:47:22.215Z,1.30
2019-02-09T07:48:22.202Z,1.20
2019-02-09T07:49:22.231Z,1.10
2019-02-09T07:50:22.183Z,1.10
2019-02-09T07:51:22.174Z,1.40
2019-02-09T07:52:22.162Z,1.20
2019-02-09T07:53:22.154Z,1.40
2019-02-09T07:54:22.139Z,1.40
2019-02-09T07:55:22.148Z,1.70
2019-02-09T07:56:22.125Z,1.50
2019-02-09T07:57:22.112Z,1.30
2019-02-09T07:58:22.096Z,1.70
2019-02-09T07:59:22.093Z,1.20
2019-02-09T08:00:22.078Z,1.20
2019-02-09T08:01:22.082Z,1.40
2019-02-09T08:02:22.054Z,1.40
2019-02-09T08:03:22.045Z,1.30
2019-02-09T08:04:22.035Z,1.40
2019-02-09T08:05:22.054Z,1.00
2019-02-09T08:06:22.012Z,1.20
2019-02-09T08:07:22.022Z,1.20
2019-02-09T08:08:22.026Z,1.20
2019-02-09T08:09:21.980Z,1.40
2019-02-09T08:10:21.969Z,1.40
2019-02-09T08:11:21.962Z,1.20
2019-02-09T08:12:21.958Z,1.40
2019-02-09T08:13:22.579Z,1.20
2019-02-09T08:14:21.926Z,1.60
2019-02-09T08:15:21.921Z,1.50
2019-02-09T08:16:21.910Z,1.20
2019-02-09T08:17:21.894Z,1.20
2019-02-09T08:18:21.885Z,1.30
2019-02-09T08:19:21.897Z,1.20
2019-02-09T08:20:21.866Z,1.60
2019-02-09T08:21:21.859Z,1.30
2019-02-09T08:22:21.847Z,1.30
2019-02-09T08:23:21.834Z,1.50
2019-02-09T08:24:28.893Z,1.70
2019-02-09T08:25:21.808Z,1.50
2019-02-09T08:26:21.805Z,1.90
2019-02-09T08:27:23.532Z,1.40
2019-02-09T08:28:21.775Z,1.60
2019-02-09T08:29:21.769Z,1.60
2019-02-09T08:30:21.770Z,1.40
2019-02-09T08:31:21.742Z,1.40
2019-02-09T08:32:21.744Z,1.40
2019-02-09T08:33:21.725Z,1.50
2019-02-09T08:34:21.715Z,1.20
2019-02-09T08:35:21.701Z,1.20
2019-02-09T08:36:21.708Z,1.20
2019-02-09T08:37:21.679Z,1.70
2019-02-09T08:38:21.671Z,1.70
2019-02-09T08:39:21.660Z,1.30
2019-02-09T08:40:21.652Z,1.20
2019-02-09T08:41:21.636Z,1.00
2019-02-09T08:42:21.667Z,1.40
2019-02-09T08:43:21.615Z,1.50
2019-02-09T08:44:21.614Z,1.40
2019-02-09T08:45:21.610Z,1.50
2019-02-09T08:46:21.588Z,1.20
2019-02-09T08:47:21.575Z,1.20
2019-02-09T08:48:21.575Z,1.20
2019-02-09T08:49:21.557Z,1.40
2019-02-09T08:50:21.557Z,1.30
2019-02-09T08:51:21.533Z,1.20
2019-02-09T08:52:21.518Z,1.50
2019-02-09T08:53:21.508Z,1.20
2019-02-09T08:54:21.526Z,1.00
2019-02-09T08:55:21.489Z,1.10
2019-02-09T08:56:21.505Z,1.20
2019-02-09T08:57:21.463Z,1.60
2019-02-09T08:58:21.458Z,1.00
2019-02-09T08:59:21.442Z,1.40
2019-02-09T09:00:21.448Z,1.40
2019-02-09T09:01:21.432Z,1.00
2019-02-09T09:02:21.410Z,1.30
2019-02-09T09:03:21.400Z,1.10
2019-02-09T09:04:21.393Z,0.90
2019-02-09T09:05:21.378Z,1.20
2019-02-09T09:06:21.384Z,1.20
2019-02-09T09:07:21.361Z,1.50
2019-02-09T09:08:21.355Z,1.30
2019-02-09T09:09:21.339Z,1.10
2019-02-09T09:10:21.334Z,1.10
2019-02-09T09:11:21.335Z,1.70
2019-02-09T09:12:21.316Z,1.20
2019-02-09T09:13:21.294Z,1.10
2019-02-09T09:14:21.285Z,1.20
2019-02-09T09:15:21.273Z,1.50
2019-02-09T09:16:21.265Z,1.60
2019-02-09T09:17:21.257Z,1.60
2019-02-09T09:18:21.263Z,1.40
2019-02-09T09:19:21.230Z,1.50
2019-02-09T09:20:21.221Z,1.30
2019-02-09T09:21:21.240Z,1.20
2019-02-09T09:22:21.196Z,2.20
2019-02-09T09:23:21.191Z,1.50
2019-02-09T09:24:21.196Z,1.60
2019-02-09T09:25:21.170Z,1.80
2019-02-09T09:26:21.159Z,1.80
2019-02-09T09:27:21.150Z,2.30
2019-02-09T09:28:21.141Z,1.90
2019-02-09T09:29:21.134Z,1.50
2019-02-09T09:30:21.128Z,1.50
2019-02-09T09:31:21.106Z,1.40
2019-02-09T09:32:27.487Z,1.40
2019-02-09T09:33:22.098Z,1.50
2019-02-09T09:34:21.068Z,1.70
2019-02-09T09:35:21.068Z,1.90
2019-02-09T09:36:21.071Z,1.20
2019-02-09T09:37:21.049Z,1.60
2019-02-09T09:38:21.029Z,1.90
2019-02-09T09:39:21.026Z,1.70
2019-02-09T09:40:21.007Z,2.00
2019-02-09T09:41:21.004Z,1.70
2019-02-09T09:42:21.020Z,1.30
2019-02-09T09:43:20.974Z,1.70
2019-02-09T09:44:20.969Z,1.30
2019-02-09T09:45:20.958Z,1.40
2019-02-09T09:46:20.943Z,1.70
2019-02-09T09:47:20.936Z,1.50
2019-02-09T09:48:20.939Z,1.30
2019-02-09T09:49:20.910Z,1.40
2019-02-09T09:50:20.901Z,1.20
2019-02-09T09:51:20.891Z,1.10
2019-02-09T09:52:20.888Z,1.30
2019-02-09T09:53:20.872Z,1.30
2019-02-09T09:54:20.879Z,1.40
2019-02-09T09:55:20.845Z,1.20
2019-02-09T09:56:20.835Z,1.40
2019-02-09T09:57:20.819Z,1.00
2019-02-09T09:58:20.819Z,1.40
2019-02-09T09:59:20.812Z,1.10
2019-02-09T10:00:20.806Z,1.10
2019-02-09T10:01:20.777Z,1.40
2019-02-09T10:02:20.777Z,1.30
2019-02-09T10:03:20.758Z,1.40
2019-02-09T10:04:20.781Z,1.20
2019-02-09T10:05:20.736Z,1.30
2019-02-09T10:06:20.746Z,1.30
2019-02-09T10:07:20.719Z,1.60
2019-02-09T10:08:20.755Z,1.50
2019-02-09T10:09:20.691Z,1.80
2019-02-09T10:10:20.688Z,1.50
2019-02-09T10:11:20.678Z,1.40
2019-02-09T10:12:20.681Z,1.30
2019-02-09T10:13:20.651Z,1.30
2019-02-09T10:14:20.640Z,1.30
2019-02-09T10:15:20.632Z,1.10
2019-02-09T10:16:20.621Z,1.50
2019-02-09T10:17:20.609Z,1.50
2019-02-09T10:18:20.619Z,2.50
2019-02-09T10:19:20.595Z,1.70
2019-02-09T10:20:20.577Z,1.80
2019-02-09T10:21:20.573Z,1.10
2019-02-09T10:22:20.554Z,0.70
2019-02-09T10:23:20.541Z,0.40
2019-02-09T10:24:20.544Z,0.60
2019-02-09T10:25:20.552Z,0.40
2019-02-09T10:26:20.512Z,0.50
2019-02-09T10:27:20.503Z,0.40
2019-02-09T10:28:20.486Z,0.40
2019-02-09T10:29:20.480Z,0.30
2019-02-09T10:30:20.573Z,0.30
2019-02-09T10:31:20.461Z,0.20
2019-02-09T10:32:20.452Z,0.40
2019-02-09T10:33:20.450Z,0.40
2019-02-09T10:34:20.432Z,0.20
2019-02-09T10:35:20.425Z,0.40
2019-02-09T10:36:20.428Z,0.40
2019-02-09T10:37:20.499Z,0.40
2019-02-09T10:38:20.396Z,0.50
2019-02-09T10:39:20.370Z,0.50
2019-02-09T10:40:20.362Z,0.60
2019-02-09T10:41:20.361Z,0.20
2019-02-09T10:42:20.365Z,0.30
2019-02-09T10:43:20.329Z,0.20
2019-02-09T10:44:20.326Z,0.50
2019-02-09T10:45:20.309Z,0.40
2019-02-09T10:46:20.300Z,0.40
2019-02-09T10:47:20.319Z,0.60
2019-02-09T10:48:20.293Z,0.40
2019-02-09T10:49:20.269Z,0.40
2019-02-09T10:50:20.259Z,0.30
2019-02-09T10:51:20.244Z,0.30
2019-02-09T10:52:20.237Z,0.40
2019-02-09T10:53:20.224Z,0.30
2019-02-09T10:54:20.231Z,0.50
2019-02-09T10:55:20.205Z,0.50
2019-02-09T10:56:20.192Z,0.20
2019-02-09T10:57:20.191Z,0.20
2019-02-09T10:58:20.179Z,0.30
2019-02-09T10:59:20.161Z,0.20
2019-02-09T11:00:20.174Z,0.20
2019-02-09T11:01:20.138Z,0.40
2019-02-09T11:02:20.131Z,0.10
2019-02-09T11:03:20.119Z,0.30
2019-02-09T11:04:20.106Z,0.10
2019-02-09T11:05:20.098Z,0.20
2019-02-09T11:06:20.102Z,0.30
2019-02-09T11:07:20.074Z,0.10
2019-02-09T11:08:20.092Z,0.40
2019-02-09T11:09:20.054Z,0.20
2019-02-09T11:10:20.099Z,0.30
2019-02-09T11:11:20.031Z,0.30
2019-02-09T11:12:20.036Z,0.30
2019-02-09T11:13:20.017Z,0.10
2019-02-09T11:14:20.002Z,0.10
2019-02-09T11:15:20.003Z,0.10
2019-02-09T11:16:19.977Z,0.20
2019-02-09T11:17:19.968Z,0.20
2019-02-09T11:18:19.974Z,0.40
2019-02-09T11:19:19.947Z,0.10
2019-02-09T11:20:19.974Z,0.40
2019-02-09T11:21:19.923Z,0.40
2019-02-09T11:22:19.945Z,0.10
2019-02-09T11:23:19.898Z,0.10
2019-02-09T11:24:19.906Z,0.20
2019-02-09T11:25:19.884Z,0.40
2019-02-09T11:26:19.871Z,0.40
2019-02-09T11:27:19.885Z,0.50
2019-02-09T11:28:19.851Z,0.20
2019-02-09T11:29:19.856Z,0.20
2019-02-09T11:30:20.034Z,0.10
2019-02-09T11:31:19.816Z,0.30
2019-02-09T11:32:19.806Z,0.20
2019-02-09T11:33:19.799Z,0.10
2019-02-09T11:34:19.784Z,0.10
2019-02-09T11:35:19.774Z,0.20
2019-02-09T11:36:19.778Z,0.10
2019-02-09T11:37:19.762Z,0.10
2019-02-09T11:38:19.768Z,0.30
2019-02-09T11:39:19.742Z,0.30
2019-02-09T11:40:19.731Z,0.40
2019-02-09T11:41:20.139Z,0.30
2019-02-09T11:42:19.718Z,0.20
2019-02-09T11:43:20.065Z,0.20
2019-02-09T11:44:19.679Z,0.20
2019-02-09T11:45:19.694Z,0.10
2019-02-09T11:46:19.656Z,0.30
2019-02-09T11:47:19.647Z,0.20
2019-02-09T11:48:19.652Z,0.30
2019-02-09T11:49:19.627Z,0.20
2019-02-09T11:50:19.621Z,0.20
2019-02-09T11:51:19.653Z,0.20
2019-02-09T11:52:19.601Z,0.30
2019-02-09T11:53:19.583Z,0.50
2019-02-09T11:54:19.582Z,0.10
2019-02-09T11:55:19.560Z,0.20
2019-02-09T11:56:19.550Z,0.20
2019-02-09T11:57:19.537Z,0.30
2019-02-09T11:58:19.528Z,0.20
2019-02-09T11:59:21.193Z,0.20
2019-02-09T12:00:19.522Z,0.20
2019-02-09T12:01:19.506Z,0.50
2019-02-09T12:02:19.487Z,0.20
2019-02-09T12:03:19.474Z,0.40
2019-02-09T12:04:19.495Z,0.30
2019-02-09T12:05:19.453Z,0.10
2019-02-09T12:06:19.521Z,0.30
2019-02-09T12:07:19.431Z,0.20
2019-02-09T12:08:19.422Z,0.20
2019-02-09T12:09:19.408Z,0.60
2019-02-09T12:10:19.399Z,0.40
2019-02-09T12:11:19.403Z,0.40
2019-02-09T12:12:19.396Z,0.20
2019-02-09T12:13:19.368Z,0.50
2019-02-09T12:14:19.357Z,0.60
2019-02-09T12:15:19.342Z,0.40
2019-02-09T12:16:19.335Z,0.30
2019-02-09T12:17:19.326Z,0.30
2019-02-09T12:18:19.329Z,0.50
2019-02-09T12:19:19.307Z,0.30
2019-02-09T12:20:19.358Z,0.20
2019-02-09T12:21:19.287Z,0.20
2019-02-09T12:22:19.271Z,0.30
2019-02-09T12:23:19.260Z,0.10
2019-02-09T12:24:19.283Z,0.40
2019-02-09T12:25:19.240Z,0.60
2019-02-09T12:26:19.295Z,0.10
2019-02-09T12:27:19.218Z,0.20
2019-02-09T12:28:19.205Z,0.20
2019-02-09T12:29:19.196Z,0.50
2019-02-09T12:30:19.202Z,0.30
2019-02-09T12:31:19.189Z,0.40
2019-02-09T12:32:19.166Z,0.40
2019-02-09T12:33:23.047Z,0.30
2019-02-09T12:34:19.144Z,0.20
2019-02-09T12:35:19.216Z,0.40
2019-02-09T12:36:19.144Z,0.30
2019-02-09T12:37:19.110Z,0.20
2019-02-09T12:38:19.101Z,0.30
2019-02-09T12:39:19.098Z,0.30
2019-02-09T12:40:19.078Z,0.20
2019-02-09T12:41:19.064Z,0.30
2019-02-09T12:42:19.068Z,0.50
2019-02-09T12:43:19.040Z,0.10
2019-02-09T12:44:19.040Z,0.60
2019-02-09T12:45:19.024Z,0.40
2019-02-09T12:46:19.012Z,0.30
2019-02-09T12:47:19.014Z,0.60
2019-02-09T12:48:19.007Z,0.50
2019-02-09T12:49:18.979Z,0.30
2019-02-09T12:50:18.969Z,0.40
2019-02-09T12:51:18.960Z,0.40
2019-02-09T12:52:18.947Z,0.50
2019-02-09T12:53:19.457Z,0.40
2019-02-09T12:54:18.940Z,0.30
2019-02-09T12:55:18.915Z,0.30
2019-02-09T12:56:18.902Z,0.30
2019-02-09T12:57:18.892Z,0.30
2019-02-09T12:58:18.883Z,0.20
2019-02-09T12:59:18.876Z,0.30
2019-02-09T13:00:18.877Z,0.30
2019-02-09T13:01:18.851Z,0.50
2019-02-09T13:02:18.841Z,0.40
2019-02-09T13:03:18.835Z,0.40
2019-02-09T13:04:18.818Z,0.40
2019-02-09T13:05:18.809Z,0.40
2019-02-09T13:06:18.812Z,0.30
2019-02-09T13:07:18.783Z,0.40
2019-02-09T13:08:18.773Z,0.40
2019-02-09T13:09:18.768Z,0.50